Time,TemperatureF,DewpointF,PressureIn,WindDirection,WindDirectionDegrees,WindSpeedMPH,WindSpeedGustMPH,Humidity,HourlyPrecipIn,Conditions,Clouds,dailyrainin,SolarRadiationWatts/m^2,SoftwareType,DateUTC
2013-07-02 00:01:00,76.0,40.0,-100.00,North,4,10.0,12.0,27,-99.99,,,-99.99,0.050000,,2013-07-02 06:01:00,
2013-07-02 00:11:00,74.0,41.0,-100.00,NNE,17,5.0,8.0,30,-99.99,,,-99.99,0.070000,,2013-07-02 06:11:00,
2013-07-02 00:23:00,74.0,41.0,-100.00,NNE,17,5.0,8.0,30,-99.99,,,-99.99,0.070000,,2013-07-02 06:23:00,
2013-07-02 00:33:00,74.0,41.0,-100.00,NNE,14,9.0,10.0,30,-99.99,,,-99.99,0.090000,,2013-07-02 06:33:00,
2013-07-02 00:43:00,75.0,39.0,-100.00,North,9,10.0,11.0,27,-99.99,,,-99.99,0.080000,,2013-07-02 06:43:00,
2013-07-02 00:53:00,70.0,40.0,-100.00,South,184,3.0,5.0,33,-99.99,,,-99.99,0.100000,,2013-07-02 06:53:00,
2013-07-02 01:11:00,68.0,39.0,-100.00,South,172,7.0,8.0,35,-99.99,,,-99.99,0.150000,,2013-07-02 07:11:00,
2013-07-02 01:22:00,68.0,40.0,-100.00,SSE,161,7.0,7.0,36,-99.99,,,-99.99,0.130000,,2013-07-02 07:22:00,
2013-07-02 01:44:00,65.0,41.0,-100.00,North,10,2.0,4.0,40,-99.99,,,-99.99,0.140000,,2013-07-02 07:44:00,
2013-07-02 02:11:00,65.0,42.0,-100.00,North,1,3.0,4.0,42,-99.99,,,-99.99,0.160000,,2013-07-02 08:11:00,
2013-07-02 02:22:00,62.0,43.0,-100.00,NNW,338,4.0,5.0,50,-99.99,,,-99.99,0.100000,,2013-07-02 08:22:00,
2013-07-02 02:44:00,62.0,43.0,-100.00,North,5,6.0,7.0,49,-99.99,,,-99.99,0.050000,,2013-07-02 08:44:00,
2013-07-02 02:53:00,63.0,43.0,-100.00,North,10,11.0,11.0,47,-99.99,,,-99.99,0.020000,,2013-07-02 08:53:00,
2013-07-02 03:11:00,66.0,43.0,-100.00,NNE,14,9.0,10.0,42,-99.99,,,-99.99,0.000000,,2013-07-02 09:11:00,
2013-07-02 03:22:00,65.0,41.0,-100.00,North,349,2.0,5.0,41,-99.99,,,-99.99,0.000000,,2013-07-02 09:22:00,
2013-07-02 03:33:00,65.0,41.0,-100.00,North,349,2.0,5.0,41,-99.99,,,-99.99,0.000000,,2013-07-02 09:33:00,
2013-07-02 03:52:00,67.0,41.0,-100.00,North,350,9.0,12.0,37,-99.99,,,-99.99,0.000000,,2013-07-02 09:52:00,
2013-07-02 04:01:00,65.0,40.0,-100.00,SSE,155,5.0,6.0,40,-99.99,,,-99.99,0.030000,,2013-07-02 10:01:00,
2013-07-02 04:11:00,65.0,40.0,-100.00,ENE,63,1.0,3.0,40,-99.99,,,-99.99,0.020000,,2013-07-02 10:11:00,
2013-07-02 04:22:00,65.0,41.0,-100.00,NNW,343,5.0,7.0,41,-99.99,,,-99.99,0.020000,,2013-07-02 10:22:00,
2013-07-02 04:43:00,65.0,41.0,-100.00,NNW,330,2.0,6.0,41,-99.99,,,-99.99,0.010000,,2013-07-02 10:43:00,
2013-07-02 04:52:00,65.0,41.0,-100.00,WNW,297,5.0,5.0,41,-99.99,,,-99.99,0.000000,,2013-07-02 10:52:00,
2013-07-02 05:01:00,65.0,41.0,-100.00,WNW,297,5.0,5.0,41,-99.99,,,-99.99,0.000000,,2013-07-02 11:01:00,
2013-07-02 05:22:00,61.0,43.0,-100.00,NNW,342,3.0,4.0,50,-99.99,,,-99.99,0.030000,,2013-07-02 11:22:00,
2013-07-02 05:33:00,61.0,43.0,-100.00,NNW,336,4.0,5.0,51,-99.99,,,-99.99,0.050000,,2013-07-02 11:33:00,
2013-07-02 05:52:00,61.0,43.0,-100.00,North,3,4.0,6.0,51,-99.99,,,-99.99,0.100000,,2013-07-02 11:52:00,
2013-07-02 06:11:00,59.0,43.0,-100.00,NNW,335,1.0,3.0,56,-99.99,,,-99.99,1.340000,,2013-07-02 12:11:00,
2013-07-02 06:23:00,59.0,43.0,-100.00,NNW,335,1.0,3.0,56,-99.99,,,-99.99,1.340000,,2013-07-02 12:23:00,
2013-07-02 06:33:00,59.0,42.0,-100.00,NNE,13,4.0,6.0,54,-99.99,,,-99.99,3.520000,,2013-07-02 12:33:00,
2013-07-02 06:43:00,61.0,42.0,-100.00,NNE,33,7.0,8.0,48,-99.99,,,-99.99,12.050000,,2013-07-02 12:43:00,
2013-07-02 06:52:00,63.0,42.0,-100.00,North,7,6.0,11.0,46,-99.99,,,-99.99,16.540001,,2013-07-02 12:52:00,
2013-07-02 07:11:00,63.0,42.0,-100.00,North,8,4.0,7.0,47,-99.99,,,-99.99,45.320000,,2013-07-02 13:11:00,
2013-07-02 07:22:00,63.0,42.0,-100.00,North,8,4.0,7.0,47,-99.99,,,-99.99,45.320000,,2013-07-02 13:22:00,
2013-07-02 07:34:00,63.0,43.0,-100.00,ENE,63,3.0,5.0,47,-99.99,,,-99.99,52.709999,,2013-07-02 13:34:00,
2013-07-02 07:52:00,65.0,43.0,-100.00,NNE,18,4.0,9.0,45,-99.99,,,-99.99,60.830002,,2013-07-02 13:52:00,
2013-07-02 08:01:00,66.0,43.0,-100.00,NE,50,2.0,5.0,44,-99.99,,,-99.99,64.290001,,2013-07-02 14:01:00,
2013-07-02 08:11:00,66.0,44.0,-100.00,NNW,347,3.0,9.0,45,-99.99,,,-99.99,225.600006,,2013-07-02 14:11:00,
2013-07-02 08:22:00,66.0,44.0,-100.00,NE,38,3.0,4.0,44,-99.99,,,-99.99,246.500000,,2013-07-02 14:22:00,
2013-07-02 08:33:00,67.0,44.0,-100.00,NNE,25,3.0,5.0,43,-99.99,,,-99.99,262.299988,,2013-07-02 14:33:00,
2013-07-02 08:43:00,68.0,43.0,-100.00,SE,133,3.0,3.0,39,-99.99,,,-99.99,197.500000,,2013-07-02 14:43:00,
2013-07-02 08:53:00,68.0,43.0,-100.00,SE,133,3.0,3.0,39,-99.99,,,-99.99,197.500000,,2013-07-02 14:53:00,
2013-07-02 09:22:00,73.0,42.0,-100.00,South,175,4.0,5.0,32,-99.99,,,-99.99,456.399994,,2013-07-02 15:22:00,
2013-07-02 09:33:00,72.0,43.0,-100.00,South,177,8.0,9.0,35,-99.99,,,-99.99,486.899994,,2013-07-02 15:33:00,
2013-07-02 09:53:00,72.0,43.0,-100.00,SSW,198,5.0,6.0,35,-99.99,,,-99.99,635.299988,,2013-07-02 15:53:00,
2013-07-02 10:01:00,74.0,43.0,-100.00,South,182,5.0,6.0,32,-99.99,,,-99.99,745.500000,,2013-07-02 16:01:00,
2013-07-02 10:11:00,76.0,42.0,-100.00,South,188,3.0,5.0,29,-99.99,,,-99.99,746.599976,,2013-07-02 16:11:00,
2013-07-02 10:43:00,79.0,41.0,-100.00,North,356,10.0,12.0,25,-99.99,,,-99.99,854.000000,,2013-07-02 16:43:00,
2013-07-02 10:52:00,80.0,45.0,-100.00,North,3,10.0,13.0,29,-99.99,,,-99.99,883.000000,,2013-07-02 16:52:00,
2013-07-02 11:02:00,81.0,41.0,-100.00,North,3,11.0,13.0,24,-99.99,,,-99.99,924.000000,,2013-07-02 17:02:00,
2013-07-02 11:11:00,81.0,41.0,-100.00,North,357,11.0,15.0,24,-99.99,,,-99.99,968.000000,,2013-07-02 17:11:00,
2013-07-02 11:22:00,81.0,41.0,-100.00,North,357,11.0,15.0,24,-99.99,,,-99.99,968.000000,,2013-07-02 17:22:00,
2013-07-02 11:33:00,83.0,41.0,-100.00,North,1,12.0,13.0,22,-99.99,,,-99.99,1039.000000,,2013-07-02 17:33:00,
2013-07-02 11:43:00,86.0,40.0,-100.00,North,7,6.0,10.0,20,-99.99,,,-99.99,994.000000,,2013-07-02 17:43:00,
2013-07-02 11:53:00,86.0,40.0,-100.00,North,7,6.0,10.0,20,-99.99,,,-99.99,994.000000,,2013-07-02 17:53:00,
2013-07-02 12:02:00,86.0,41.0,-100.00,North,5,6.0,9.0,19,-99.99,,,-99.99,986.000000,,2013-07-02 18:02:00,
2013-07-02 12:11:00,87.0,40.0,-100.00,North,349,4.0,8.0,19,-99.99,,,-99.99,988.000000,,2013-07-02 18:11:00,
2013-07-02 12:22:00,87.0,38.0,-100.00,NNW,347,6.0,9.0,17,-99.99,,,-99.99,973.000000,,2013-07-02 18:22:00,
2013-07-02 12:34:00,88.0,35.0,-100.00,NNE,24,6.0,7.0,15,-99.99,,,-99.99,1000.000000,,2013-07-02 18:34:00,
2013-07-02 12:43:00,89.0,37.0,-100.00,NNE,18,8.0,9.0,15,-99.99,,,-99.99,999.000000,,2013-07-02 18:43:00,
2013-07-02 13:01:00,89.0,36.0,-100.00,NNE,18,5.0,8.0,14,-99.99,,,-99.99,1002.000000,,2013-07-02 19:01:00,
2013-07-02 13:11:00,91.0,38.0,-100.00,North,10,8.0,13.0,15,-99.99,,,-99.99,1046.000000,,2013-07-02 19:11:00,
2013-07-02 13:22:00,90.0,36.0,-100.00,NNE,14,12.0,16.0,15,-99.99,,,-99.99,949.000000,,2013-07-02 19:22:00,
2013-07-02 13:33:00,90.0,36.0,-100.00,NNE,14,12.0,16.0,15,-99.99,,,-99.99,949.000000,,2013-07-02 19:33:00,
2013-07-02 13:43:00,90.0,36.0,-100.00,NNE,18,12.0,18.0,14,-99.99,,,-99.99,1024.000000,,2013-07-02 19:43:00,
2013-07-02 13:53:00,91.0,36.0,-100.00,NNW,342,6.0,20.0,14,-99.99,,,-99.99,1051.000000,,2013-07-02 19:53:00,
2013-07-02 14:01:00,90.0,36.0,-100.00,NNW,343,8.0,14.0,14,-99.99,,,-99.99,1031.000000,,2013-07-02 20:01:00,
2013-07-02 14:11:00,92.0,32.0,-100.00,North,4,17.0,18.0,12,-99.99,,,-99.99,1025.000000,,2013-07-02 20:11:00,
2013-07-02 14:22:00,92.0,32.0,-100.00,North,4,17.0,18.0,12,-99.99,,,-99.99,1025.000000,,2013-07-02 20:22:00,
2013-07-02 14:43:00,92.0,34.0,-100.00,North,8,16.0,23.0,13,-99.99,,,-99.99,1031.000000,,2013-07-02 20:43:00,
2013-07-02 15:02:00,92.0,35.0,-100.00,NNE,23,15.0,20.0,13,-99.99,,,-99.99,1011.000000,,2013-07-02 21:02:00,
2013-07-02 15:22:00,92.0,37.0,-100.00,NNW,343,14.0,22.0,14,-99.99,,,-99.99,989.000000,,2013-07-02 21:22:00,
2013-07-02 15:43:00,93.0,34.0,-100.00,North,349,10.0,17.0,12,-99.99,,,-99.99,946.000000,,2013-07-02 21:43:00,
2013-07-02 15:52:00,93.0,34.0,-100.00,North,349,10.0,17.0,12,-99.99,,,-99.99,946.000000,,2013-07-02 21:52:00,
2013-07-02 16:01:00,94.0,36.0,-100.00,NNE,18,10.0,18.0,13,-99.99,,,-99.99,931.000000,,2013-07-02 22:01:00,
2013-07-02 16:22:00,93.0,34.0,-100.00,North,349,17.0,21.0,12,-99.99,,,-99.99,901.000000,,2013-07-02 22:22:00,
2013-07-02 16:33:00,94.0,34.0,-100.00,North,4,15.0,18.0,12,-99.99,,,-99.99,851.000000,,2013-07-02 22:33:00,
2013-07-02 16:43:00,95.0,33.0,-100.00,NNE,14,11.0,17.0,11,-99.99,,,-99.99,822.000000,,2013-07-02 22:43:00,
2013-07-02 16:53:00,94.0,35.0,-100.00,NNW,347,10.0,15.0,12,-99.99,,,-99.99,797.599976,,2013-07-02 22:53:00,
2013-07-02 17:01:00,94.0,35.0,-100.00,NNW,347,10.0,15.0,12,-99.99,,,-99.99,797.599976,,2013-07-02 23:01:00,
2013-07-02 17:11:00,94.0,34.0,-100.00,NNE,14,10.0,14.0,12,-99.99,,,-99.99,746.799988,,2013-07-02 23:11:00,
2013-07-02 17:22:00,94.0,33.0,-100.00,NNE,13,14.0,16.0,11,-99.99,,,-99.99,717.099976,,2013-07-02 23:22:00,
2013-07-02 17:44:00,94.0,33.0,-100.00,North,354,16.0,20.0,11,-99.99,,,-99.99,654.900024,,2013-07-02 23:44:00,
2013-07-02 17:52:00,94.0,33.0,-100.00,North,354,16.0,20.0,11,-99.99,,,-99.99,654.900024,,2013-07-02 23:52:00,
2013-07-02 18:01:00,94.0,32.0,-100.00,NNE,16,13.0,15.0,11,-99.99,,,-99.99,591.700012,,2013-07-03 00:01:00,
2013-07-02 18:11:00,94.0,32.0,-100.00,NNE,16,13.0,15.0,11,-99.99,,,-99.99,591.700012,,2013-07-03 00:11:00,
2013-07-02 18:33:00,93.0,36.0,-100.00,NNW,342,12.0,17.0,13,-99.99,,,-99.99,526.200012,,2013-07-03 00:33:00,
2013-07-02 18:52:00,93.0,32.0,-100.00,North,7,17.0,23.0,11,-99.99,,,-99.99,463.299988,,2013-07-03 00:52:00,
2013-07-02 19:11:00,92.0,32.0,-100.00,NNW,348,11.0,18.0,11,-99.99,,,-99.99,393.100006,,2013-07-03 01:11:00,
2013-07-02 19:42:00,90.0,33.0,-100.00,North,352,11.0,12.0,13,-99.99,,,-99.99,278.000000,,2013-07-03 01:42:00,
2013-07-02 20:12:00,85.0,40.0,-100.00,NNE,26,5.0,6.0,20,-99.99,,,-99.99,114.400002,,2013-07-03 02:12:00,
2013-07-02 20:23:00,85.0,40.0,-100.00,NNE,12,5.0,8.0,20,-99.99,,,-99.99,73.110001,,2013-07-03 02:23:00,
2013-07-02 20:34:00,85.0,40.0,-100.00,NNE,12,5.0,8.0,20,-99.99,,,-99.99,73.110001,,2013-07-03 02:34:00,
2013-07-02 20:43:00,83.0,40.0,-100.00,North,7,7.0,8.0,22,-99.99,,,-99.99,47.580002,,2013-07-03 02:43:00,
2013-07-02 20:53:00,82.0,41.0,-100.00,NNE,26,8.0,8.0,22,-99.99,,,-99.99,29.120001,,2013-07-03 02:53:00,
2013-07-02 21:02:00,82.0,41.0,-100.00,NNE,26,8.0,8.0,22,-99.99,,,-99.99,29.120001,,2013-07-03 03:02:00,
2013-07-02 21:12:00,81.0,40.0,-100.00,NNE,33,7.0,9.0,22,-99.99,,,-99.99,9.640000,,2013-07-03 03:12:00,
2013-07-02 21:34:00,81.0,39.0,-100.00,NNE,26,8.0,8.0,22,-99.99,,,-99.99,3.650000,,2013-07-03 03:34:00,
2013-07-02 21:43:00,81.0,39.0,-100.00,NNE,19,9.0,11.0,22,-99.99,,,-99.99,0.200000,,2013-07-03 03:43:00,
2013-07-02 22:11:00,83.0,38.0,-100.00,NE,35,13.0,16.0,19,-99.99,,,-99.99,0.010000,,2013-07-03 04:11:00,
2013-07-02 22:22:00,83.0,39.0,-100.00,NE,38,13.0,16.0,20,-99.99,,,-99.99,0.030000,,2013-07-03 04:22:00,
2013-07-02 22:33:00,83.0,39.0,-100.00,NE,38,13.0,16.0,20,-99.99,,,-99.99,0.030000,,2013-07-03 04:33:00,
2013-07-02 22:52:00,81.0,39.0,-100.00,NE,37,10.0,12.0,21,-99.99,,,-99.99,0.050000,,2013-07-03 04:52:00,
2013-07-02 23:01:00,82.0,38.0,-100.00,NE,50,15.0,18.0,20,-99.99,,,-99.99,0.040000,,2013-07-03 05:01:00,
2013-07-02 23:11:00,82.0,38.0,-100.00,NE,50,15.0,18.0,20,-99.99,,,-99.99,0.040000,,2013-07-03 05:11:00,
2013-07-02 23:23:00,82.0,38.0,-100.00,NE,35,7.0,13.0,20,-99.99,,,-99.99,0.040000,,2013-07-03 05:23:00,
2013-07-02 23:43:00,76.0,43.0,-100.00,North,8,11.0,13.0,30,-99.99,,,-99.99,0.100000,,2013-07-03 05:43:00,
2013-07-02 23:53:00,75.0,43.0,-100.00,North,9,12.0,13.0,32,-99.99,,,-99.99,0.090000,,2013-07-03 05:53:00,